Time;durP1;ratioP1;P1;durP2;ratioP2;P2;SDS_P1;SDS_P2;PMS_P1;PMS_P2;Temp;Humidity;BMP_temperature;BMP_pressure;BME280_temperature;BME280_humidity;BME280_pressure;Samples;Min_cycle;Max_cycle;Signal;HPM_P1;HPM_P2
2024/01/29 00:00:32;;;;;;;0.00;0.00;;;9.00;68.00;;;;;;5045317;28;20204;-38
2024/01/29 00:03:00;;;;;;;0.00;0.00;;;9.00;68.10;;;;;;5041353;28;20224;-38
2024/01/29 00:05:28;;;;;;;0.00;0.00;;;9.00;68.00;;;;;;5031043;28;20215;-38
2024/01/29 00:07:57;;;;;;;0.00;0.00;;;9.00;68.10;;;;;;5034668;28;20216;-38
2024/01/29 00:10:25;;;;;;;0.00;0.00;;;9.00;68.00;;;;;;5035962;28;20565;-37
2024/01/29 00:12:57;;;;;;;0.00;0.00;;;9.00;68.00;;;;;;5036943;28;20236;-38
2024/01/29 00:15:32;;;;;;;0.00;0.00;;;9.00;68.00;;;;;;5032494;28;20875;-38
2024/01/29 00:18:05;;;;;;;0.00;0.00;;;8.90;67.90;;;;;;5058643;28;20214;-40
2024/01/29 00:20:34;;;;;;;0.00;0.00;;;8.90;67.90;;;;;;5036448;28;20608;-38
2024/01/29 00:23:04;;;;;;;0.00;0.00;;;8.90;68.00;;;;;;5034025;28;20208;-41
2024/01/29 00:25:33;;;;;;;0.00;0.00;;;8.90;68.00;;;;;;5034240;28;20211;-37
2024/01/29 00:28:06;;;;;;;0.00;0.00;;;8.90;68.00;;;;;;5029595;28;20233;-38
2024/01/29 00:30:34;;;;;;;0.00;0.00;;;8.90;68.00;;;;;;5035496;28;20225;-38
2024/01/29 00:33:01;;;;;;;0.00;0.00;;;8.90;68.00;;;;;;5032754;28;20213;-38
2024/01/29 00:35:33;;;;;;;0.00;0.00;;;8.90;68.00;;;;;;5038351;28;20240;-38
2024/01/29 00:38:03;;;;;;;0.00;0.00;;;8.90;68.00;;;;;;5031581;28;20216;-38
2024/01/29 00:40:33;;;;;;;0.00;0.00;;;9.00;68.00;;;;;;5034286;28;20742;-38
2024/01/29 00:43:06;;;;;;;0.00;0.00;;;8.90;68.00;;;;;;5041593;28;20215;-38
2024/01/29 00:45:35;;;;;;;0.00;0.00;;;8.90;68.00;;;;;;5041411;28;20323;-41
2024/01/29 00:48:07;;;;;;;0.00;0.00;;;8.90;68.00;;;;;;5039055;28;20204;-40
2024/01/29 00:50:34;;;;;;;0.00;0.00;;;8.90;68.00;;;;;;5030083;28;20848;-40
2024/01/29 00:53:05;;;;;;;0.00;0.00;;;8.90;68.00;;;;;;5034552;28;20753;-41
2024/01/29 00:55:37;;;;;;;0.00;0.00;;;8.90;67.90;;;;;;5042688;28;20928;-39
2024/01/29 00:58:07;;;;;;;0.00;0.00;;;8.90;68.00;;;;;;5036313;28;20201;-41
2024/01/29 01:00:39;;;;;;;0.00;0.00;;;8.90;68.00;;;;;;5038542;28;20291;-41
2024/01/29 01:03:13;;;;;;;0.00;0.00;;;8.90;68.50;;;;;;5037613;28;20231;-39
2024/01/29 01:05:41;;;;;;;0.00;0.00;;;8.90;68.00;;;;;;5038607;28;20215;-40
2024/01/29 01:08:11;;;;;;;0.00;0.00;;;8.90;68.00;;;;;;5035082;28;20197;-39
2024/01/29 01:10:40;;;;;;;0.00;0.00;;;8.90;68.00;;;;;;5032439;28;20221;-38
2024/01/29 01:13:12;;;;;;;0.00;0.00;;;8.90;68.00;;;;;;5047081;28;20274;-41
2024/01/29 01:15:39;;;;;;;0.00;0.00;;;8.90;68.00;;;;;;5031112;28;20205;-41
2024/01/29 01:18:11;;;;;;;0.00;0.00;;;8.90;67.90;;;;;;5038910;28;20628;-40
2024/01/29 01:20:41;;;;;;;0.00;0.00;;;8.90;68.00;;;;;;5030226;28;20233;-38
2024/01/29 01:23:08;;;;;;;0.00;0.00;;;8.90;68.00;;;;;;5027992;28;20438;-39
2024/01/29 01:25:36;;;;;;;0.00;0.00;;;8.90;68.00;;;;;;5030283;28;20609;-40
2024/01/29 01:28:03;;;;;;;0.00;0.00;;;8.90;68.00;;;;;;5034484;28;20215;-38
2024/01/29 01:30:33;;;;;;;0.00;0.00;;;8.90;68.00;;;;;;5030875;28;20283;-39
2024/01/29 01:33:00;;;;;;;0.00;0.00;;;8.90;68.00;;;;;;5036806;28;20212;-40
2024/01/29 01:35:32;;;;;;;0.00;0.00;;;8.80;68.70;;;;;;5031708;28;20244;-39
2024/01/29 01:38:02;;;;;;;0.00;0.00;;;8.80;67.90;;;;;;5034516;28;20231;-41
2024/01/29 01:40:29;;;;;;;0.00;0.00;;;8.80;67.80;;;;;;5034689;28;20212;-40
2024/01/29 01:43:14;;;;;;;0.00;0.00;;;8.80;67.80;;;;;;5028803;28;20212;-41
2024/01/29 01:45:41;;;;;;;0.00;0.00;;;8.80;67.80;;;;;;5030394;28;20208;-40
2024/01/29 01:48:10;;;;;;;0.00;0.00;;;8.80;67.80;;;;;;5036262;28;20216;-40
2024/01/29 01:50:42;;;;;;;0.00;0.00;;;8.80;67.80;;;;;;5032796;28;20200;-39
2024/01/29 01:53:09;;;;;;;0.00;0.00;;;8.80;67.90;;;;;;5032850;28;20286;-39
2024/01/29 01:55:39;;;;;;;0.00;0.00;;;8.80;67.80;;;;;;5040582;28;20204;-39
2024/01/29 01:58:09;;;;;;;0.00;0.00;;;8.70;67.70;;;;;;5035121;28;20270;-39
2024/01/29 02:00:46;;;;;;;0.00;0.00;;;8.70;67.80;;;;;;5037980;28;21048;-39
2024/01/29 02:03:13;;;;;;;0.00;0.00;;;8.70;67.80;;;;;;5035484;28;20208;-36
2024/01/29 02:05:41;;;;;;;0.00;0.00;;;8.70;67.80;;;;;;5032142;28;20200;-36
2024/01/29 02:08:17;;;;;;;0.00;0.00;;;8.60;67.80;;;;;;5034576;28;20224;-37
2024/01/29 02:10:45;;;;;;;0.00;0.00;;;8.60;67.80;;;;;;5037422;28;20204;-36
2024/01/29 02:13:15;;;;;;;0.00;0.00;;;8.60;67.80;;;;;;5040685;28;20281;-38
2024/01/29 02:15:45;;;;;;;0.00;0.00;;;8.60;67.90;;;;;;5028865;28;20192;-38
2024/01/29 02:18:17;;;;;;;0.00;0.00;;;8.60;67.80;;;;;;5045960;28;20662;-37
2024/01/29 02:20:46;;;;;;;0.00;0.00;;;8.60;67.80;;;;;;5033444;28;20212;-38
2024/01/29 02:23:16;;;;;;;0.00;0.00;;;8.50;67.80;;;;;;5025229;28;20312;-37
2024/01/29 02:25:46;;;;;;;0.00;0.00;;;8.50;67.80;;;;;;5024908;28;20673;-37
2024/01/29 02:28:18;;;;;;;0.00;0.00;;;8.50;67.80;;;;;;5035560;28;20240;-38
2024/01/29 02:30:49;;;;;;;0.00;0.00;;;8.50;67.80;;;;;;5041647;28;20213;-38
2024/01/29 02:33:17;;;;;;;0.00;0.00;;;8.50;67.80;;;;;;5013227;28;20682;-39
2024/01/29 02:35:52;;;;;;;0.00;0.00;;;8.50;67.80;;;;;;5032937;28;20244;-37
2024/01/29 02:38:21;;;;;;;0.00;0.00;;;8.50;67.80;;;;;;5037803;28;20293;-36
2024/01/29 02:40:49;;;;;;;0.00;0.00;;;8.40;67.80;;;;;;5030080;28;20205;-38
2024/01/29 02:43:18;;;;;;;0.00;0.00;;;8.40;67.80;;;;;;5044400;28;20282;-36
2024/01/29 02:45:47;;;;;;;0.00;0.00;;;8.40;67.80;;;;;;5034095;28;20303;-38
2024/01/29 02:48:16;;;;;;;0.00;0.00;;;8.40;67.80;;;;;;5038175;28;20213;-36
2024/01/29 02:50:44;;;;;;;0.00;0.00;;;8.40;67.70;;;;;;5027838;28;20231;-35
2024/01/29 02:53:14;;;;;;;0.00;0.00;;;8.40;67.70;;;;;;5037144;28;20734;-36
2024/01/29 02:55:41;;;;;;;0.00;0.00;;;8.40;67.80;;;;;;5034828;28;20279;-36
2024/01/29 02:58:08;;;;;;;0.00;0.00;;;8.40;67.70;;;;;;5034853;28;20216;-36
2024/01/29 03:00:35;;;;;;;0.00;0.00;;;8.30;67.60;;;;;;5033830;28;20262;-36
2024/01/29 03:03:06;;;;;;;0.00;0.00;;;8.30;67.60;;;;;;5026865;28;20856;-36
2024/01/29 03:05:33;;;;;;;0.00;0.00;;;8.30;67.60;;;;;;5029360;28;20208;-38
2024/01/29 03:08:06;;;;;;;0.00;0.00;;;8.30;67.60;;;;;;5037175;28;20307;-35
2024/01/29 03:10:38;;;;;;;0.00;0.00;;;8.20;67.50;;;;;;5037264;28;20363;-36
2024/01/29 03:13:09;;;;;;;0.00;0.00;;;8.20;67.60;;;;;;5028020;28;20236;-36
2024/01/29 03:15:36;;;;;;;0.00;0.00;;;8.20;67.60;;;;;;5038506;28;20725;-36
2024/01/29 03:18:04;;;;;;;0.00;0.00;;;8.20;67.60;;;;;;5034190;28;20204;-36
2024/01/29 03:20:31;;;;;;;0.00;0.00;;;8.10;67.60;;;;;;5032353;28;20216;-36
2024/01/29 03:23:03;;;;;;;0.00;0.00;;;8.10;67.60;;;;;;5043219;28;20240;-37
2024/01/29 03:25:30;;;;;;;0.00;0.00;;;8.10;67.60;;;;;;5033534;28;20212;-35
2024/01/29 03:28:02;;;;;;;0.00;0.00;;;8.10;67.60;;;;;;5043741;28;20200;-38
2024/01/29 03:30:30;;;;;;;0.00;0.00;;;8.10;67.70;;;;;;5036276;28;20563;-38
2024/01/29 03:32:57;;;;;;;0.00;0.00;;;8.10;67.70;;;;;;5035164;28;20252;-36
2024/01/29 03:35:27;;;;;;;0.00;0.00;;;8.00;67.60;;;;;;5040807;28;20229;-36
2024/01/29 03:37:54;;;;;;;0.00;0.00;;;8.00;67.50;;;;;;5034016;28;20519;-36
2024/01/29 03:40:23;;;;;;;0.00;0.00;;;8.00;67.60;;;;;;5036553;28;20266;-37
2024/01/29 03:42:50;;;;;;;0.00;0.00;;;8.00;67.60;;;;;;5034761;28;20217;-37
2024/01/29 03:45:20;;;;;;;0.00;0.00;;;8.00;67.60;;;;;;5034127;28;20204;-38
2024/01/29 03:47:47;;;;;;;0.00;0.00;;;8.00;67.70;;;;;;5036131;28;20655;-38
2024/01/29 03:50:17;;;;;;;0.00;0.00;;;8.00;67.70;;;;;;5035951;28;20221;-37
2024/01/29 03:52:50;;;;;;;0.00;0.00;;;7.90;67.70;;;;;;5028001;28;20220;-37
2024/01/29 03:55:20;;;;;;;0.00;0.00;;;8.00;67.70;;;;;;5029025;28;20240;-36
2024/01/29 03:57:47;;;;;;;0.00;0.00;;;7.90;67.70;;;;;;5029627;28;20212;-36
2024/01/29 04:00:18;;;;;;;0.00;0.00;;;7.90;67.70;;;;;;5029191;28;20597;-37
2024/01/29 04:02:49;;;;;;;0.00;0.00;;;7.90;67.70;;;;;;5030627;28;20642;-37
2024/01/29 04:05:17;;;;;;;0.00;0.00;;;7.90;67.70;;;;;;5023852;28;20205;-36
2024/01/29 04:07:47;;;;;;;0.00;0.00;;;7.90;67.70;;;;;;5033730;28;20221;-36
2024/01/29 04:10:19;;;;;;;0.00;0.00;;;7.90;67.70;;;;;;5032332;28;20220;-37
2024/01/29 04:12:47;;;;;;;0.00;0.00;;;7.90;67.60;;;;;;5015575;28;20243;-35
2024/01/29 04:15:17;;;;;;;0.00;0.00;;;7.80;67.60;;;;;;5035668;28;20212;-36
2024/01/29 04:17:44;;;;;;;0.00;0.00;;;7.80;67.60;;;;;;5023796;28;20216;-36
2024/01/29 04:20:14;;;;;;;0.00;0.00;;;7.80;67.60;;;;;;5013598;28;20197;-36
2024/01/29 04:22:46;;;;;;;0.00;0.00;;;7.80;67.60;;;;;;5036934;28;20216;-36
2024/01/29 04:25:17;;;;;;;0.00;0.00;;;7.80;67.60;;;;;;5037034;28;20215;-37
2024/01/29 04:27:46;;;;;;;0.00;0.00;;;7.70;67.60;;;;;;5033282;28;20710;-36
2024/01/29 04:30:18;;;;;;;0.00;0.00;;;7.70;67.60;;;;;;5030111;28;20693;-36
2024/01/29 04:32:45;;;;;;;0.00;0.00;;;7.70;67.60;;;;;;5032088;28;20274;-36
2024/01/29 04:35:15;;;;;;;0.00;0.00;;;7.70;67.60;;;;;;5001303;28;1172009;-36
2024/01/29 04:37:42;;;;;;;0.00;0.00;;;7.70;67.60;;;;;;5032784;28;20259;-39
2024/01/29 04:40:13;;;;;;;0.00;0.00;;;7.70;67.70;;;;;;5034603;28;20689;-36
2024/01/29 04:42:50;;;;;;;0.00;0.00;;;7.60;67.60;;;;;;5029364;28;20625;-37
2024/01/29 04:45:20;;;;;;;0.00;0.00;;;7.70;67.70;;;;;;5035713;28;20219;-37
2024/01/29 04:47:49;;;;;;;0.00;0.00;;;7.60;67.70;;;;;;5048108;28;20291;-35
2024/01/29 04:50:19;;;;;;;0.00;0.00;;;7.60;67.70;;;;;;5037395;28;20205;-37
2024/01/29 04:52:51;;;;;;;0.00;0.00;;;7.60;67.70;;;;;;5040773;28;20574;-35
2024/01/29 04:55:18;;;;;;;0.00;0.00;;;7.60;67.70;;;;;;5040629;28;20213;-39
2024/01/29 04:57:48;;;;;;;0.00;0.00;;;7.60;67.70;;;;;;5024685;28;20197;-36
2024/01/29 05:00:21;;;;;;;0.00;0.00;;;7.60;67.70;;;;;;5029669;28;20212;-37
2024/01/29 05:02:48;;;;;;;0.00;0.00;;;7.60;67.70;;;;;;5031215;28;20216;-36
2024/01/29 05:05:20;;;;;;;0.00;0.00;;;7.60;67.70;;;;;;5040402;28;20231;-37
2024/01/29 05:07:51;;;;;;;0.00;0.00;;;7.60;67.70;;;;;;5035223;28;20211;-37
2024/01/29 05:10:23;;;;;;;0.00;0.00;;;7.60;67.80;;;;;;5033642;28;20316;-35
2024/01/29 05:12:50;;;;;;;0.00;0.00;;;7.60;67.70;;;;;;5035268;28;20208;-37
2024/01/29 05:15:17;;;;;;;0.00;0.00;;;7.60;67.80;;;;;;5037468;28;20226;-38
2024/01/29 05:17:45;;;;;;;0.00;0.00;;;7.60;67.70;;;;;;5022763;28;20201;-37
2024/01/29 05:20:12;;;;;;;0.00;0.00;;;7.60;68.50;;;;;;5035558;28;20615;-37
2024/01/29 05:22:42;;;;;;;0.00;0.00;;;7.60;67.80;;;;;;5035635;28;20365;-36
2024/01/29 05:25:14;;;;;;;0.00;0.00;;;7.60;67.80;;;;;;5023921;28;20208;-37
2024/01/29 05:27:41;;;;;;;0.00;0.00;;;7.60;67.70;;;;;;5032320;28;20221;-36
2024/01/29 05:30:14;;;;;;;0.00;0.00;;;7.60;67.80;;;;;;5041302;28;20846;-36
2024/01/29 05:32:43;;;;;;;0.00;0.00;;;7.60;67.70;;;;;;5039177;28;20201;-36
2024/01/29 05:35:15;;;;;;;0.00;0.00;;;7.60;67.80;;;;;;5037403;28;20240;-38
2024/01/29 05:37:42;;;;;;;0.00;0.00;;;7.60;67.80;;;;;;5032888;28;20216;-36
2024/01/29 05:40:11;;;;;;;0.00;0.00;;;7.50;67.70;;;;;;5029286;28;20213;-35
2024/01/29 05:42:52;;;;;;;0.00;0.00;;;7.50;67.80;;;;;;5042271;28;20587;-38
2024/01/29 05:45:22;;;;;;;0.00;0.00;;;7.50;67.70;;;;;;5046930;28;20636;-37
2024/01/29 05:47:52;;;;;;;0.00;0.00;;;7.50;67.80;;;;;;5036201;28;20231;-37
2024/01/29 05:50:21;;;;;;;0.00;0.00;;;7.50;67.80;;;;;;5043930;28;20270;-38
2024/01/29 05:52:53;;;;;;;0.00;0.00;;;7.50;67.80;;;;;;5042403;28;20213;-38
2024/01/29 05:55:23;;;;;;;0.00;0.00;;;7.50;67.80;;;;;;5036817;28;20205;-36
2024/01/29 05:57:52;;;;;;;0.00;0.00;;;7.50;67.80;;;;;;5033920;28;20212;-38
2024/01/29 06:00:24;;;;;;;0.00;0.00;;;7.50;67.80;;;;;;5034962;28;20192;-37
2024/01/29 06:02:52;;;;;;;0.00;0.00;;;7.50;67.80;;;;;;5032940;28;20212;-37
2024/01/29 06:05:19;;;;;;;0.00;0.00;;;7.40;67.80;;;;;;5042976;28;20693;-37
2024/01/29 06:07:47;;;;;;;0.00;0.00;;;7.50;67.90;;;;;;5042305;28;20193;-37
2024/01/29 06:10:19;;;;;;;0.00;0.00;;;7.40;67.90;;;;;;5017963;28;20227;-37
2024/01/29 06:12:51;;;;;;;0.00;0.00;;;7.40;67.90;;;;;;5034156;28;20206;-37
2024/01/29 06:15:19;;;;;;;0.00;0.00;;;7.40;67.90;;;;;;5034946;28;20468;-37
2024/01/29 06:17:46;;;;;;;0.00;0.00;;;7.40;67.90;;;;;;5038410;28;20202;-37
2024/01/29 06:20:13;;;;;;;0.00;0.00;;;7.40;67.90;;;;;;5042021;28;21041;-36
2024/01/29 06:22:50;;;;;;;0.00;0.00;;;7.40;68.00;;;;;;5030846;28;20201;-37
2024/01/29 06:25:19;;;;;;;0.00;0.00;;;7.50;67.90;;;;;;5038485;28;20262;-38
2024/01/29 06:27:47;;;;;;;0.00;0.00;;;7.40;68.60;;;;;;5042230;28;20291;-39
2024/01/29 06:30:17;;;;;;;0.00;0.00;;;7.40;67.90;;;;;;5040293;28;20216;-39
2024/01/29 06:32:49;;;;;;;0.00;0.00;;;7.40;67.90;;;;;;5031299;28;20585;-40
2024/01/29 06:35:19;;;;;;;0.00;0.00;;;7.40;67.90;;;;;;5036223;28;20233;-39
2024/01/29 06:37:48;;;;;;;0.00;0.00;;;7.40;67.90;;;;;;5040601;28;20608;-40
2024/01/29 06:40:22;;;;;;;0.00;0.00;;;7.40;67.90;;;;;;5040084;28;20244;-38
2024/01/29 06:42:52;;;;;;;0.00;0.00;;;7.40;67.90;;;;;;5033681;28;20223;-40
2024/01/29 06:45:22;;;;;;;0.00;0.00;;;7.40;67.90;;;;;;5035713;28;20217;-40
2024/01/29 06:47:51;;;;;;;0.00;0.00;;;7.30;67.90;;;;;;5037682;28;20220;-39
2024/01/29 06:50:21;;;;;;;0.00;0.00;;;7.40;68.00;;;;;;5030219;28;20296;-40
2024/01/29 06:52:55;;;;;;;0.00;0.00;;;7.30;67.90;;;;;;5031533;28;20203;-39
2024/01/29 06:55:23;;;;;;;0.00;0.00;;;7.30;68.00;;;;;;5028636;28;20221;-40
2024/01/29 06:57:50;;;;;;;0.00;0.00;;;7.30;67.90;;;;;;5033421;28;20205;-39
2024/01/29 07:00:20;;;;;;;0.00;0.00;;;7.30;67.90;;;;;;5031314;28;20204;-39
2024/01/29 07:02:52;;;;;;;0.00;0.00;;;7.30;67.90;;;;;;5036349;28;20240;-39
2024/01/29 07:05:20;;;;;;;0.00;0.00;;;7.30;67.90;;;;;;5032778;28;20205;-41
2024/01/29 07:07:49;;;;;;;0.00;0.00;;;7.30;67.90;;;;;;5037108;28;20222;-40
2024/01/29 07:10:19;;;;;;;0.00;0.00;;;7.30;68.00;;;;;;5028579;28;20283;-42
2024/01/29 07:12:48;;;;;;;0.00;0.00;;;7.30;67.90;;;;;;5039376;28;20200;-40
2024/01/29 07:15:18;;;;;;;0.00;0.00;;;7.30;67.90;;;;;;5032912;28;20221;-40
2024/01/29 07:17:47;;;;;;;0.00;0.00;;;7.30;67.90;;;;;;5037662;28;20204;-38
2024/01/29 07:20:19;;;;;;;0.00;0.00;;;7.30;67.90;;;;;;5033924;28;20205;-41
2024/01/29 07:22:48;;;;;;;0.00;0.00;;;7.30;67.90;;;;;;5039992;28;20250;-39
2024/01/29 07:25:17;;;;;;;0.00;0.00;;;7.20;67.90;;;;;;5042784;28;20264;-39
2024/01/29 07:27:45;;;;;;;0.00;0.00;;;7.20;68.00;;;;;;5032063;28;20290;-40
2024/01/29 07:30:17;;;;;;;0.00;0.00;;;7.20;67.90;;;;;;5039976;28;20696;-40
2024/01/29 07:32:46;;;;;;;0.00;0.00;;;7.20;68.00;;;;;;5040914;28;20678;-41
2024/01/29 07:35:16;;;;;;;0.00;0.00;;;7.20;68.00;;;;;;5036532;28;20339;-41
2024/01/29 07:37:50;;;;;;;0.00;0.00;;;7.20;68.10;;;;;;5030030;28;20217;-40
2024/01/29 07:40:22;;;;;;;0.00;0.00;;;7.20;68.10;;;;;;5034174;28;20808;-41
2024/01/29 07:42:50;;;;;;;0.00;0.00;;;7.20;68.10;;;;;;5040849;28;20209;-40
2024/01/29 07:45:22;;;;;;;0.00;0.00;;;7.20;68.20;;;;;;5034999;28;20564;-41
2024/01/29 07:47:50;;;;;;;0.00;0.00;;;7.20;68.20;;;;;;5036458;28;20211;-41
2024/01/29 07:50:20;;;;;;;0.00;0.00;;;7.20;68.20;;;;;;5039568;28;20204;-39
2024/01/29 07:52:50;;;;;;;0.00;0.00;;;7.20;68.20;;;;;;5032720;28;20686;-41
2024/01/29 07:55:18;;;;;;;0.00;0.00;;;7.20;68.20;;;;;;5023360;28;20224;-39
2024/01/29 07:57:46;;;;;;;0.00;0.00;;;7.20;68.20;;;;;;5040811;28;20192;-40
2024/01/29 08:00:16;;;;;;;0.00;0.00;;;7.20;68.20;;;;;;5038005;28;20223;-42
2024/01/29 08:02:45;;;;;;;0.00;0.00;;;7.30;68.30;;;;;;5025315;28;20220;-40
2024/01/29 08:05:15;;;;;;;0.00;0.00;;;7.30;68.30;;;;;;5035192;28;20296;-41
2024/01/29 08:07:42;;;;;;;0.00;0.00;;;7.30;68.30;;;;;;5030991;28;20205;-40
2024/01/29 08:10:09;;;;;;;0.00;0.00;;;7.30;68.30;;;;;;5026229;28;20703;-41
2024/01/29 08:12:39;;;;;;;0.00;0.00;;;7.30;68.40;;;;;;5013499;28;20652;-36
2024/01/29 08:15:10;;;;;;;0.00;0.00;;;7.30;68.40;;;;;;5034356;28;20205;-38
2024/01/29 08:17:42;;;;;;;0.00;0.00;;;7.30;68.40;;;;;;5041916;28;20205;-38
2024/01/29 08:20:10;;;;;;;0.00;0.00;;;7.40;68.50;;;;;;5028285;28;20220;-36
2024/01/29 08:22:38;;;;;;;0.00;0.00;;;7.40;68.50;;;;;;5040543;28;20289;-36
2024/01/29 08:25:08;;;;;;;0.00;0.00;;;7.40;68.50;;;;;;5045134;28;20232;-37
2024/01/29 08:27:35;;;;;;;0.00;0.00;;;7.40;68.50;;;;;;5040263;28;20200;-37
2024/01/29 08:30:05;;;;;;;0.00;0.00;;;7.50;68.50;;;;;;5029779;28;20221;-36
2024/01/29 08:32:37;;;;;;;0.00;0.00;;;7.50;68.50;;;;;;5027746;28;20235;-35
2024/01/29 08:35:05;;;;;;;0.00;0.00;;;7.50;68.50;;;;;;5029339;28;20267;-36
2024/01/29 08:37:35;;;;;;;0.00;0.00;;;7.60;68.60;;;;;;5034003;28;20678;-37
2024/01/29 08:40:03;;;;;;;0.00;0.00;;;7.60;68.70;;;;;;5021347;28;20209;-38
2024/01/29 08:42:33;;;;;;;0.00;0.00;;;7.60;68.70;;;;;;5027463;28;20205;-37
2024/01/29 08:45:00;;;;;;;0.00;0.00;;;7.70;68.70;;;;;;5037684;28;20695;-38
2024/01/29 08:47:27;;;;;;;0.00;0.00;;;7.70;68.70;;;;;;5038680;28;20282;-39
2024/01/29 08:49:55;;;;;;;0.00;0.00;;;7.80;68.80;;;;;;5039210;28;20200;-42
2024/01/29 08:52:24;;;;;;;0.00;0.00;;;7.80;68.80;;;;;;5037195;28;20214;-41
2024/01/29 08:54:52;;;;;;;0.00;0.00;;;7.90;68.80;;;;;;5030422;28;20344;-39
2024/01/29 08:57:19;;;;;;;0.00;0.00;;;7.90;68.80;;;;;;5027074;28;20205;-37
2024/01/29 08:59:49;;;;;;;0.00;0.00;;;7.90;68.80;;;;;;5033618;28;20200;-39
2024/01/29 09:02:16;;;;;;;0.00;0.00;;;8.00;68.90;;;;;;5034236;28;20199;-40
2024/01/29 09:04:48;;;;;;;0.00;0.00;;;8.00;68.90;;;;;;5032393;28;20251;-36
2024/01/29 09:07:18;;;;;;;0.00;0.00;;;8.10;68.90;;;;;;5031748;28;20201;-37
2024/01/29 09:09:47;;;;;;;0.00;0.00;;;8.10;68.90;;;;;;5034432;28;20212;-40
2024/01/29 09:12:17;;;;;;;0.00;0.00;;;8.10;68.90;;;;;;5038089;28;20208;-38
2024/01/29 09:14:44;;;;;;;0.00;0.00;;;8.20;69.00;;;;;;5031039;28;20224;-38
2024/01/29 09:17:14;;;;;;;0.00;0.00;;;8.20;69.00;;;;;;5032766;28;20367;-36
2024/01/29 09:19:45;;;;;;;0.00;0.00;;;8.30;69.10;;;;;;5035100;28;20208;-38
2024/01/29 09:22:12;;;;;;;0.00;0.00;;;8.30;69.10;;;;;;5018977;28;20243;-37
2024/01/29 09:24:40;;;;;;;0.00;0.00;;;8.30;69.10;;;;;;5036965;28;20236;-37
2024/01/29 09:27:07;;;;;;;0.00;0.00;;;8.40;69.10;;;;;;5039578;28;20287;-38
2024/01/29 09:29:37;;;;;;;0.00;0.00;;;8.40;69.20;;;;;;5034322;28;20219;-36
2024/01/29 09:32:05;;;;;;;0.00;0.00;;;8.50;69.20;;;;;;5036705;28;20228;-40
2024/01/29 09:34:34;;;;;;;0.00;0.00;;;8.50;69.20;;;;;;5036457;28;20595;-38
2024/01/29 09:37:02;;;;;;;0.00;0.00;;;8.60;69.30;;;;;;5035573;28;20197;-39
2024/01/29 09:39:29;;;;;;;0.00;0.00;;;8.60;69.20;;;;;;5036018;28;20212;-38
2024/01/29 09:42:04;;;;;;;0.00;0.00;;;8.70;69.30;;;;;;5031960;28;20201;-37
2024/01/29 09:44:39;;;;;;;0.00;0.00;;;8.70;69.40;;;;;;5036341;28;20682;-43
2024/01/29 09:47:10;;;;;;;0.00;0.00;;;8.80;69.40;;;;;;5034020;28;20271;-37
2024/01/29 09:49:42;;;;;;;0.00;0.00;;;8.80;69.40;;;;;;5040330;28;20749;-37
2024/01/29 09:52:16;;;;;;;0.00;0.00;;;8.80;69.40;;;;;;5037915;28;20205;-36
2024/01/29 09:54:49;;;;;;;0.00;0.00;;;8.90;69.60;;;;;;5030881;28;20223;-36
2024/01/29 09:57:16;;;;;;;0.00;0.00;;;9.00;69.60;;;;;;5033034;28;20231;-37
2024/01/29 09:59:44;;;;;;;0.00;0.00;;;9.00;69.60;;;;;;5034083;28;20197;-39
2024/01/29 10:02:15;;;;;;;0.00;0.00;;;9.10;69.70;;;;;;5036173;28;20192;-37
2024/01/29 10:04:45;;;;;;;0.00;0.00;;;9.20;69.90;;;;;;5024310;28;20200;-36
2024/01/29 10:07:16;;;;;;;0.00;0.00;;;9.20;69.80;;;;;;5034506;28;20217;-38
2024/01/29 10:09:46;;;;;;;0.00;0.00;;;9.30;69.90;;;;;;5040491;28;20216;-39
2024/01/29 10:12:26;;;;;;;0.00;0.00;;;9.40;70.00;;;;;;5038207;28;20208;-36
2024/01/29 10:14:57;;;;;;;0.00;0.00;;;9.40;70.00;;;;;;5034010;28;20234;-37
2024/01/29 10:17:28;;;;;;;0.00;0.00;;;9.50;70.00;;;;;;5034952;28;20201;-40
2024/01/29 10:19:57;;;;;;;0.00;0.00;;;9.60;70.00;;;;;;5040109;28;20204;-37
2024/01/29 10:22:27;;;;;;;0.00;0.00;;;9.70;70.10;;;;;;5039207;28;20200;-39
2024/01/29 10:25:03;;;;;;;0.00;0.00;;;9.70;70.10;;;;;;5025953;28;20217;-38
2024/01/29 10:27:31;;;;;;;0.00;0.00;;;9.80;70.30;;;;;;5038639;28;20686;-40
2024/01/29 10:30:01;;;;;;;0.00;0.00;;;9.90;70.30;;;;;;5039985;28;20208;-39
2024/01/29 10:32:33;;;;;;;0.00;0.00;;;9.90;70.30;;;;;;5026421;28;20204;-39
2024/01/29 10:35:00;;;;;;;0.00;0.00;;;10.00;70.40;;;;;;5034705;28;20738;-40
2024/01/29 10:37:28;;;;;;;0.00;0.00;;;10.10;70.60;;;;;;5035377;28;20236;-39
2024/01/29 10:39:57;;;;;;;0.00;0.00;;;10.20;70.50;;;;;;5042003;28;20200;-39
2024/01/29 10:42:31;;;;;;;0.00;0.00;;;10.30;70.70;;;;;;5031222;28;20741;-40
2024/01/29 10:45:00;;;;;;;0.00;0.00;;;10.40;70.70;;;;;;5028694;28;20223;-39
2024/01/29 10:47:31;;;;;;;0.00;0.00;;;10.40;70.70;;;;;;5032366;28;20207;-37
2024/01/29 10:50:01;;;;;;;0.00;0.00;;;10.50;70.80;;;;;;5028920;28;20212;-39
2024/01/29 10:52:33;;;;;;;0.00;0.00;;;10.60;70.80;;;;;;5032789;28;20299;-39
2024/01/29 10:55:10;;;;;;;0.00;0.00;;;10.70;70.90;;;;;;5038433;28;20885;-39
2024/01/29 10:57:45;;;;;;;0.00;0.00;;;10.80;70.90;;;;;;5037389;28;20292;-42
2024/01/29 11:00:14;;;;;;;0.00;0.00;;;10.80;70.80;;;;;;5035675;28;20753;-40
2024/01/29 11:02:48;;;;;;;0.00;0.00;;;10.90;70.90;;;;;;5036502;28;20208;-40
2024/01/29 11:05:15;;;;;;;0.00;0.00;;;11.00;71.10;;;;;;5038173;28;20200;-40
2024/01/29 11:07:47;;;;;;;0.00;0.00;;;11.10;71.00;;;;;;5032616;28;20213;-39
2024/01/29 11:10:17;;;;;;;0.00;0.00;;;11.10;71.00;;;;;;5040714;28;20220;-41
2024/01/29 11:12:46;;;;;;;0.00;0.00;;;11.20;71.20;;;;;;5045340;28;20647;-40
2024/01/29 11:15:16;;;;;;;0.00;0.00;;;11.30;71.20;;;;;;5039556;28;20308;-39
2024/01/29 11:17:46;;;;;;;0.00;0.00;;;11.40;71.30;;;;;;5031677;28;20195;-39
2024/01/29 11:20:24;;;;;;;0.00;0.00;;;11.40;71.30;;;;;;5034234;28;20216;-45
2024/01/29 11:22:59;;;;;;;0.00;0.00;;;11.50;71.30;;;;;;5042400;28;20196;-40
2024/01/29 11:25:32;;;;;;;0.00;0.00;;;11.60;71.30;;;;;;5034482;28;20212;-41
2024/01/29 11:28:00;;;;;;;0.00;0.00;;;11.60;71.40;;;;;;5045060;28;20219;-39
2024/01/29 11:30:28;;;;;;;0.00;0.00;;;11.70;71.40;;;;;;5031654;28;20205;-39
2024/01/29 11:33:14;;;;;;;0.00;0.00;;;11.70;71.40;;;;;;5043992;28;20212;-39
2024/01/29 11:35:50;;;;;;;0.00;0.00;;;11.80;71.50;;;;;;5038486;28;20239;-40
2024/01/29 11:38:25;;;;;;;0.00;0.00;;;11.90;71.50;;;;;;5038112;28;20258;-39
2024/01/29 11:41:00;;;;;;;0.00;0.00;;;11.90;71.50;;;;;;5033632;28;20197;-39
2024/01/29 11:43:31;;;;;;;0.00;0.00;;;12.00;71.60;;;;;;5035186;28;20196;-39
2024/01/29 11:46:05;;;;;;;0.00;0.00;;;12.10;71.60;;;;;;5030605;28;20215;-38
2024/01/29 11:48:35;;;;;;;0.00;0.00;;;12.10;71.50;;;;;;5032449;28;20209;-40
2024/01/29 11:51:08;;;;;;;0.00;0.00;;;12.20;71.60;;;;;;5032794;28;20572;-39
2024/01/29 11:53:36;;;;;;;0.00;0.00;;;12.20;71.70;;;;;;5034675;28;20213;-39
2024/01/29 11:56:06;;;;;;;0.00;0.00;;;12.30;71.80;;;;;;5030968;28;20209;-39
2024/01/29 11:58:33;;;;;;;0.00;0.00;;;12.40;71.80;;;;;;5050089;28;20363;-38
2024/01/29 12:01:03;;;;;;;0.00;0.00;;;12.40;71.60;;;;;;5033178;28;20280;-39
2024/01/29 12:03:34;;;;;;;0.00;0.00;;;12.50;71.70;;;;;;5037341;28;20786;-39
2024/01/29 12:06:08;;;;;;;0.00;0.00;;;12.50;71.60;;;;;;5041030;28;20291;-40
2024/01/29 12:08:36;;;;;;;0.00;0.00;;;12.60;71.70;;;;;;5033222;28;20220;-39
2024/01/29 12:11:07;;;;;;;0.00;0.00;;;12.60;71.60;;;;;;5034332;28;20302;-41
2024/01/29 12:13:37;;;;;;;0.00;0.00;;;12.70;71.70;;;;;;5042272;28;20204;-39
2024/01/29 12:16:08;;;;;;;0.00;0.00;;;12.70;72.50;;;;;;5030764;28;20283;-39
2024/01/29 12:18:38;;;;;;;0.00;0.00;;;12.80;71.70;;;;;;5029163;28;20278;-39
2024/01/29 12:21:08;;;;;;;0.00;0.00;;;12.80;71.70;;;;;;5041330;28;20209;-40
2024/01/29 12:23:40;;;;;;;0.00;0.00;;;12.80;71.70;;;;;;5022961;28;20291;-40
2024/01/29 12:26:13;;;;;;;0.00;0.00;;;12.90;71.80;;;;;;5032505;28;20200;-41
2024/01/29 12:28:42;;;;;;;0.00;0.00;;;12.90;71.80;;;;;;5039246;28;20257;-40
2024/01/29 12:31:10;;;;;;;0.00;0.00;;;12.90;71.70;;;;;;5036411;28;20200;-38
2024/01/29 12:33:38;;;;;;;0.00;0.00;;;13.00;71.80;;;;;;5033129;28;20208;-39
2024/01/29 12:36:14;;;;;;;0.00;0.00;;;13.00;71.80;;;;;;5038869;28;20268;-38
2024/01/29 12:38:44;;;;;;;0.00;0.00;;;13.10;71.90;;;;;;5034498;28;20655;-42
2024/01/29 12:41:12;;;;;;;0.00;0.00;;;13.10;71.80;;;;;;5041313;28;20204;-39
2024/01/29 12:43:42;;;;;;;0.00;0.00;;;13.20;71.90;;;;;;5022643;28;20705;-39
2024/01/29 12:46:16;;;;;;;0.00;0.00;;;13.20;71.90;;;;;;5039119;28;20215;-38
2024/01/29 12:48:44;;;;;;;0.00;0.00;;;13.20;71.80;;;;;;5033333;28;20262;-38
2024/01/29 12:51:12;;;;;;;0.00;0.00;;;13.30;71.90;;;;;;5031033;28;20255;-40
2024/01/29 12:53:42;;;;;;;0.00;0.00;;;13.30;72.00;;;;;;5038071;28;20728;-38
2024/01/29 12:56:12;;;;;;;0.00;0.00;;;13.40;72.00;;;;;;5031520;28;20764;-39
2024/01/29 12:58:41;;;;;;;0.00;0.00;;;13.40;72.00;;;;;;5040587;28;20205;-39
2024/01/29 13:01:10;;;;;;;0.00;0.00;;;13.40;72.00;;;;;;5040797;28;20196;-39
2024/01/29 13:03:39;;;;;;;0.00;0.00;;;13.50;72.00;;;;;;5044811;28;20227;-38
2024/01/29 13:06:07;;;;;;;0.00;0.00;;;13.50;72.00;;;;;;5045245;28;20742;-39
2024/01/29 13:08:39;;;;;;;0.00;0.00;;;13.60;72.10;;;;;;5032047;28;20652;-40